sensor_id;sensor_type;location;lat;lon;timestamp;P1;durP1;ratioP1;P2;durP2;ratioP2
68176;SDS011;56478;50.982;7.032;2024-03-02T00:00:03;1.90;;;1.80;;
68176;SDS011;56478;50.982;7.032;2024-03-02T00:05:12;1.90;;;1.80;;
68176;SDS011;56478;50.982;7.032;2024-03-02T00:07:42;1.67;;;1.58;;
68176;SDS011;56478;50.982;7.032;2024-03-02T00:10:10;2.28;;;2.08;;
68176;SDS011;56478;50.982;7.032;2024-03-02T00:18:01;2.03;;;1.92;;
68176;SDS011;56478;50.982;7.032;2024-03-02T00:20:27;2.85;;;2.15;;
68176;SDS011;56478;50.982;7.032;2024-03-02T00:22:58;1.55;;;1.45;;
68176;SDS011;56478;50.982;7.032;2024-03-02T00:25:43;1.70;;;1.60;;
68176;SDS011;56478;50.982;7.032;2024-03-02T00:28:19;2.67;;;2.17;;
68176;SDS011;56478;50.982;7.032;2024-03-02T00:33:30;2.03;;;1.70;;
68176;SDS011;56478;50.982;7.032;2024-03-02T00:35:57;3.40;;;1.95;;
68176;SDS011;56478;50.982;7.032;2024-03-02T00:38:25;2.20;;;2.00;;
68176;SDS011;56478;50.982;7.032;2024-03-02T00:40:51;2.03;;;1.92;;
68176;SDS011;56478;50.982;7.032;2024-03-02T00:46:04;1.60;;;1.50;;
68176;SDS011;56478;50.982;7.032;2024-03-02T00:48:30;1.80;;;1.70;;
68176;SDS011;56478;50.982;7.032;2024-03-02T00:50:56;1.90;;;1.80;;
68176;SDS011;56478;50.982;7.032;2024-03-02T00:53:23;1.80;;;1.70;;
68176;SDS011;56478;50.982;7.032;2024-03-02T00:55:51;3.90;;;1.77;;
68176;SDS011;56478;50.982;7.032;2024-03-02T00:58:16;1.65;;;1.55;;
68176;SDS011;56478;50.982;7.032;2024-03-02T01:00:42;2.00;;;1.88;;
68176;SDS011;56478;50.982;7.032;2024-03-02T01:03:08;2.83;;;1.60;;
68176;SDS011;56478;50.982;7.032;2024-03-02T01:05:35;2.03;;;1.80;;
68176;SDS011;56478;50.982;7.032;2024-03-02T01:08:02;1.80;;;1.70;;
68176;SDS011;56478;50.982;7.032;2024-03-02T01:10:27;1.80;;;1.70;;
68176;SDS011;56478;50.982;7.032;2024-03-02T01:12:53;1.90;;;1.55;;
68176;SDS011;56478;50.982;7.032;2024-03-02T01:15:19;1.80;;;1.70;;
68176;SDS011;56478;50.982;7.032;2024-03-02T01:17:44;1.70;;;1.60;;
68176;SDS011;56478;50.982;7.032;2024-03-02T01:20:10;1.75;;;1.65;;
68176;SDS011;56478;50.982;7.032;2024-03-02T01:22:36;2.65;;;1.70;;
68176;SDS011;56478;50.982;7.032;2024-03-02T01:25:02;2.03;;;1.20;;
68176;SDS011;56478;50.982;7.032;2024-03-02T01:27:28;1.33;;;1.23;;
68176;SDS011;56478;50.982;7.032;2024-03-02T01:29:54;1.60;;;1.50;;
68176;SDS011;56478;50.982;7.032;2024-03-02T01:32:20;2.03;;;1.83;;
68176;SDS011;56478;50.982;7.032;2024-03-02T01:34:46;2.15;;;1.67;;
68176;SDS011;56478;50.982;7.032;2024-03-02T01:37:11;1.80;;;1.70;;
68176;SDS011;56478;50.982;7.032;2024-03-02T01:39:37;1.70;;;1.60;;
68176;SDS011;56478;50.982;7.032;2024-03-02T01:42:03;1.70;;;1.60;;
68176;SDS011;56478;50.982;7.032;2024-03-02T01:44:29;1.70;;;1.60;;
68176;SDS011;56478;50.982;7.032;2024-03-02T01:46:55;1.63;;;1.52;;
68176;SDS011;56478;50.982;7.032;2024-03-02T01:49:21;3.78;;;1.70;;
68176;SDS011;56478;50.982;7.032;2024-03-02T01:51:47;1.73;;;1.63;;
68176;SDS011;56478;50.982;7.032;2024-03-02T01:54:13;1.92;;;1.80;;
68176;SDS011;56478;50.982;7.032;2024-03-02T01:56:39;1.70;;;1.60;;
68176;SDS011;56478;50.982;7.032;2024-03-02T01:59:04;2.30;;;1.80;;
68176;SDS011;56478;50.982;7.032;2024-03-02T02:01:30;1.73;;;1.63;;
68176;SDS011;56478;50.982;7.032;2024-03-02T02:03:56;1.70;;;1.60;;
68176;SDS011;56478;50.982;7.032;2024-03-02T02:06:22;2.40;;;1.55;;
68176;SDS011;56478;50.982;7.032;2024-03-02T02:08:48;2.40;;;1.77;;
68176;SDS011;56478;50.982;7.032;2024-03-02T02:11:16;2.22;;;1.70;;
68176;SDS011;56478;50.982;7.032;2024-03-02T02:13:42;1.17;;;1.17;;
68176;SDS011;56478;50.982;7.032;2024-03-02T02:18:57;1.60;;;1.50;;
68176;SDS011;56478;50.982;7.032;2024-03-02T02:21:23;1.70;;;1.60;;
68176;SDS011;56478;50.982;7.032;2024-03-02T02:23:49;1.70;;;1.60;;
68176;SDS011;56478;50.982;7.032;2024-03-02T02:26:15;2.13;;;1.70;;
68176;SDS011;56478;50.982;7.032;2024-03-02T02:28:41;2.90;;;1.70;;
68176;SDS011;56478;50.982;7.032;2024-03-02T02:31:12;1.70;;;1.60;;
68176;SDS011;56478;50.982;7.032;2024-03-02T02:33:39;2.28;;;1.88;;
68176;SDS011;56478;50.982;7.032;2024-03-02T02:36:05;1.65;;;1.50;;
68176;SDS011;56478;50.982;7.032;2024-03-02T02:38:32;1.70;;;1.60;;
68176;SDS011;56478;50.982;7.032;2024-03-02T02:41:00;1.75;;;1.65;;
68176;SDS011;56478;50.982;7.032;2024-03-02T02:43:25;1.45;;;1.45;;
68176;SDS011;56478;50.982;7.032;2024-03-02T02:45:51;3.58;;;1.60;;
68176;SDS011;56478;50.982;7.032;2024-03-02T02:48:17;1.60;;;1.50;;
68176;SDS011;56478;50.982;7.032;2024-03-02T02:50:42;1.73;;;1.60;;
68176;SDS011;56478;50.982;7.032;2024-03-02T02:53:08;1.70;;;1.60;;
68176;SDS011;56478;50.982;7.032;2024-03-02T02:55:35;1.80;;;1.70;;
68176;SDS011;56478;50.982;7.032;2024-03-02T02:58:08;1.92;;;1.73;;
68176;SDS011;56478;50.982;7.032;2024-03-02T03:00:34;1.73;;;1.63;;
68176;SDS011;56478;50.982;7.032;2024-03-02T03:03:00;1.70;;;1.60;;
68176;SDS011;56478;50.982;7.032;2024-03-02T03:05:26;1.38;;;1.27;;
68176;SDS011;56478;50.982;7.032;2024-03-02T03:07:52;1.95;;;1.60;;
68176;SDS011;56478;50.982;7.032;2024-03-02T03:10:18;2.53;;;1.70;;
68176;SDS011;56478;50.982;7.032;2024-03-02T03:12:46;1.75;;;1.55;;
68176;SDS011;56478;50.982;7.032;2024-03-02T03:15:11;2.08;;;1.67;;
68176;SDS011;56478;50.982;7.032;2024-03-02T03:17:37;1.67;;;1.58;;
68176;SDS011;56478;50.982;7.032;2024-03-02T03:20:03;2.92;;;1.58;;
68176;SDS011;56478;50.982;7.032;2024-03-02T03:22:30;1.73;;;1.60;;
68176;SDS011;56478;50.982;7.032;2024-03-02T03:24:57;1.85;;;1.70;;
68176;SDS011;56478;50.982;7.032;2024-03-02T03:27:22;1.70;;;1.60;;
68176;SDS011;56478;50.982;7.032;2024-03-02T03:29:48;2.70;;;1.80;;
68176;SDS011;56478;50.982;7.032;2024-03-02T03:32:14;2.15;;;1.60;;
68176;SDS011;56478;50.982;7.032;2024-03-02T03:34:39;1.70;;;1.60;;
68176;SDS011;56478;50.982;7.032;2024-03-02T03:37:05;2.28;;;1.90;;
68176;SDS011;56478;50.982;7.032;2024-03-02T03:39:31;2.00;;;1.90;;
68176;SDS011;56478;50.982;7.032;2024-03-02T03:41:59;2.20;;;1.80;;
68176;SDS011;56478;50.982;7.032;2024-03-02T03:44:24;1.90;;;1.80;;
68176;SDS011;56478;50.982;7.032;2024-03-02T03:46:50;1.70;;;1.60;;
68176;SDS011;56478;50.982;7.032;2024-03-02T03:49:16;2.45;;;1.70;;
68176;SDS011;56478;50.982;7.032;2024-03-02T03:51:42;2.28;;;1.80;;
68176;SDS011;56478;50.982;7.032;2024-03-02T03:54:08;2.15;;;1.88;;
68176;SDS011;56478;50.982;7.032;2024-03-02T03:56:36;1.80;;;1.70;;
68176;SDS011;56478;50.982;7.032;2024-03-02T03:59:02;2.00;;;1.80;;
68176;SDS011;56478;50.982;7.032;2024-03-02T04:01:27;1.85;;;1.52;;
68176;SDS011;56478;50.982;7.032;2024-03-02T04:03:53;1.70;;;1.60;;
68176;SDS011;56478;50.982;7.032;2024-03-02T04:06:19;1.90;;;1.80;;
68176;SDS011;56478;50.982;7.032;2024-03-02T04:08:45;1.80;;;1.70;;
68176;SDS011;56478;50.982;7.032;2024-03-02T04:11:11;1.80;;;1.70;;
68176;SDS011;56478;50.982;7.032;2024-03-02T04:13:37;1.70;;;1.60;;
68176;SDS011;56478;50.982;7.032;2024-03-02T04:16:02;1.73;;;1.63;;
68176;SDS011;56478;50.982;7.032;2024-03-02T04:18:30;2.00;;;1.80;;
68176;SDS011;56478;50.982;7.032;2024-03-02T04:20:57;1.90;;;1.50;;
68176;SDS011;56478;50.982;7.032;2024-03-02T04:23:24;1.67;;;1.58;;
68176;SDS011;56478;50.982;7.032;2024-03-02T04:25:52;2.15;;;1.83;;
68176;SDS011;56478;50.982;7.032;2024-03-02T04:28:18;2.65;;;1.90;;
68176;SDS011;56478;50.982;7.032;2024-03-02T04:30:44;1.98;;;1.80;;
68176;SDS011;56478;50.982;7.032;2024-03-02T04:33:09;3.35;;;1.80;;
68176;SDS011;56478;50.982;7.032;2024-03-02T04:35:35;1.80;;;1.70;;
68176;SDS011;56478;50.982;7.032;2024-03-02T04:38:01;1.58;;;1.48;;
68176;SDS011;56478;50.982;7.032;2024-03-02T04:40:27;1.70;;;1.60;;
68176;SDS011;56478;50.982;7.032;2024-03-02T04:42:53;5.22;;;1.83;;
68176;SDS011;56478;50.982;7.032;2024-03-02T04:45:19;2.33;;;1.90;;
68176;SDS011;56478;50.982;7.032;2024-03-02T04:47:44;1.95;;;1.65;;
68176;SDS011;56478;50.982;7.032;2024-03-02T04:50:10;1.90;;;1.70;;
68176;SDS011;56478;50.982;7.032;2024-03-02T04:52:36;1.73;;;1.63;;
68176;SDS011;56478;50.982;7.032;2024-03-02T04:55:02;2.83;;;1.80;;
68176;SDS011;56478;50.982;7.032;2024-03-02T04:57:46;1.70;;;1.60;;
68176;SDS011;56478;50.982;7.032;2024-03-02T05:00:12;2.03;;;1.83;;
68176;SDS011;56478;50.982;7.032;2024-03-02T05:02:38;2.17;;;1.95;;
68176;SDS011;56478;50.982;7.032;2024-03-02T05:05:04;1.88;;;1.77;;
68176;SDS011;56478;50.982;7.032;2024-03-02T05:07:30;1.90;;;1.80;;
68176;SDS011;56478;50.982;7.032;2024-03-02T05:09:56;1.88;;;1.77;;
68176;SDS011;56478;50.982;7.032;2024-03-02T05:12:21;2.15;;;1.90;;
68176;SDS011;56478;50.982;7.032;2024-03-02T05:15:05;1.80;;;1.70;;
68176;SDS011;56478;50.982;7.032;2024-03-02T05:17:32;2.22;;;1.63;;
68176;SDS011;56478;50.982;7.032;2024-03-02T05:19:58;2.10;;;1.88;;
68176;SDS011;56478;50.982;7.032;2024-03-02T05:22:24;2.53;;;1.90;;
68176;SDS011;56478;50.982;7.032;2024-03-02T05:24:49;1.77;;;1.67;;
68176;SDS011;56478;50.982;7.032;2024-03-02T05:27:15;1.80;;;1.70;;
68176;SDS011;56478;50.982;7.032;2024-03-02T05:29:41;1.63;;;1.52;;
68176;SDS011;56478;50.982;7.032;2024-03-02T05:32:06;2.20;;;1.92;;
68176;SDS011;56478;50.982;7.032;2024-03-02T05:34:32;1.52;;;1.30;;
68176;SDS011;56478;50.982;7.032;2024-03-02T05:37:00;2.00;;;1.90;;
68176;SDS011;56478;50.982;7.032;2024-03-02T05:39:27;2.45;;;1.90;;
68176;SDS011;56478;50.982;7.032;2024-03-02T05:41:52;4.22;;;1.80;;
68176;SDS011;56478;50.982;7.032;2024-03-02T05:44:18;3.55;;;1.90;;
68176;SDS011;56478;50.982;7.032;2024-03-02T05:46:44;4.15;;;2.03;;
68176;SDS011;56478;50.982;7.032;2024-03-02T05:49:10;1.60;;;1.50;;
68176;SDS011;56478;50.982;7.032;2024-03-02T05:51:36;2.42;;;2.20;;
68176;SDS011;56478;50.982;7.032;2024-03-02T05:54:02;2.25;;;2.05;;
68176;SDS011;56478;50.982;7.032;2024-03-02T05:56:28;2.58;;;2.38;;
68176;SDS011;56478;50.982;7.032;2024-03-02T05:58:54;2.20;;;2.10;;
68176;SDS011;56478;50.982;7.032;2024-03-02T06:01:44;4.55;;;2.28;;
68176;SDS011;56478;50.982;7.032;2024-03-02T06:04:17;2.38;;;2.17;;
68176;SDS011;56478;50.982;7.032;2024-03-02T06:06:43;3.08;;;2.30;;
68176;SDS011;56478;50.982;7.032;2024-03-02T06:09:09;2.97;;;2.20;;
68176;SDS011;56478;50.982;7.032;2024-03-02T06:11:38;2.20;;;2.10;;
68176;SDS011;56478;50.982;7.032;2024-03-02T06:14:05;2.28;;;2.08;;
68176;SDS011;56478;50.982;7.032;2024-03-02T06:16:32;2.25;;;2.05;;
68176;SDS011;56478;50.982;7.032;2024-03-02T06:18:58;2.10;;;1.98;;
68176;SDS011;56478;50.982;7.032;2024-03-02T06:21:24;2.60;;;2.40;;
68176;SDS011;56478;50.982;7.032;2024-03-02T06:23:50;2.72;;;2.53;;
68176;SDS011;56478;50.982;7.032;2024-03-02T06:26:15;2.50;;;2.30;;
68176;SDS011;56478;50.982;7.032;2024-03-02T06:28:41;2.63;;;2.38;;
68176;SDS011;56478;50.982;7.032;2024-03-02T06:31:07;2.60;;;2.40;;
68176;SDS011;56478;50.982;7.032;2024-03-02T06:33:32;2.38;;;2.17;;
68176;SDS011;56478;50.982;7.032;2024-03-02T06:35:58;2.60;;;2.40;;
68176;SDS011;56478;50.982;7.032;2024-03-02T06:38:24;3.35;;;2.42;;
68176;SDS011;56478;50.982;7.032;2024-03-02T06:40:49;2.60;;;2.40;;
68176;SDS011;56478;50.982;7.032;2024-03-02T06:43:15;2.50;;;2.30;;
68176;SDS011;56478;50.982;7.032;2024-03-02T06:45:41;2.83;;;2.30;;
68176;SDS011;56478;50.982;7.032;2024-03-02T06:48:06;3.10;;;2.30;;
68176;SDS011;56478;50.982;7.032;2024-03-02T06:50:32;4.82;;;2.50;;
68176;SDS011;56478;50.982;7.032;2024-03-02T06:52:58;2.47;;;2.28;;
68176;SDS011;56478;50.982;7.032;2024-03-02T06:55:24;2.83;;;2.50;;
68176;SDS011;56478;50.982;7.032;2024-03-02T06:57:50;2.75;;;2.45;;
68176;SDS011;56478;50.982;7.032;2024-03-02T07:00:16;3.15;;;2.47;;
68176;SDS011;56478;50.982;7.032;2024-03-02T07:02:43;2.88;;;2.35;;
68176;SDS011;56478;50.982;7.032;2024-03-02T07:05:10;2.88;;;2.40;;
68176;SDS011;56478;50.982;7.032;2024-03-02T07:07:36;6.20;;;2.60;;
68176;SDS011;56478;50.982;7.032;2024-03-02T07:10:03;2.60;;;2.40;;
68176;SDS011;56478;50.982;7.032;2024-03-02T07:12:30;2.90;;;2.28;;
68176;SDS011;56478;50.982;7.032;2024-03-02T07:14:56;3.45;;;2.38;;
68176;SDS011;56478;50.982;7.032;2024-03-02T07:17:28;3.03;;;2.60;;
68176;SDS011;56478;50.982;7.032;2024-03-02T07:19:54;3.63;;;2.70;;
68176;SDS011;56478;50.982;7.032;2024-03-02T07:22:20;3.08;;;2.75;;
68176;SDS011;56478;50.982;7.032;2024-03-02T07:24:45;2.60;;;2.40;;
68176;SDS011;56478;50.982;7.032;2024-03-02T07:27:11;3.10;;;2.78;;
68176;SDS011;56478;50.982;7.032;2024-03-02T07:29:38;2.83;;;2.60;;
68176;SDS011;56478;50.982;7.032;2024-03-02T07:32:05;2.70;;;2.50;;
68176;SDS011;56478;50.982;7.032;2024-03-02T07:34:32;3.17;;;2.45;;
68176;SDS011;56478;50.982;7.032;2024-03-02T07:36:57;4.20;;;2.42;;
68176;SDS011;56478;50.982;7.032;2024-03-02T07:39:23;2.50;;;2.30;;
68176;SDS011;56478;50.982;7.032;2024-03-02T07:41:49;3.63;;;2.30;;
68176;SDS011;56478;50.982;7.032;2024-03-02T07:44:15;2.65;;;2.45;;
68176;SDS011;56478;50.982;7.032;2024-03-02T07:46:41;3.85;;;2.50;;
68176;SDS011;56478;50.982;7.032;2024-03-02T07:49:08;2.70;;;2.50;;
68176;SDS011;56478;50.982;7.032;2024-03-02T07:51:34;3.00;;;2.72;;
68176;SDS011;56478;50.982;7.032;2024-03-02T07:54:00;2.60;;;2.40;;
68176;SDS011;56478;50.982;7.032;2024-03-02T07:56:26;2.50;;;2.30;;
68176;SDS011;56478;50.982;7.032;2024-03-02T07:58:52;3.10;;;2.50;;
68176;SDS011;56478;50.982;7.032;2024-03-02T08:01:18;2.50;;;2.30;;
68176;SDS011;56478;50.982;7.032;2024-03-02T08:03:43;3.10;;;2.50;;
68176;SDS011;56478;50.982;7.032;2024-03-02T08:06:18;2.63;;;2.42;;
68176;SDS011;56478;50.982;7.032;2024-03-02T08:08:46;4.57;;;2.60;;
68176;SDS011;56478;50.982;7.032;2024-03-02T08:11:12;3.00;;;2.70;;
68176;SDS011;56478;50.982;7.032;2024-03-02T08:13:38;3.55;;;2.45;;
68176;SDS011;56478;50.982;7.032;2024-03-02T08:16:03;2.50;;;2.30;;
68176;SDS011;56478;50.982;7.032;2024-03-02T08:18:32;3.03;;;2.55;;
68176;SDS011;56478;50.982;7.032;2024-03-02T08:20:58;2.47;;;2.28;;
68176;SDS011;56478;50.982;7.032;2024-03-02T08:23:24;3.50;;;2.30;;
68176;SDS011;56478;50.982;7.032;2024-03-02T08:25:50;2.75;;;2.55;;
68176;SDS011;56478;50.982;7.032;2024-03-02T08:28:16;2.15;;;2.05;;
68176;SDS011;56478;50.982;7.032;2024-03-02T08:30:42;2.53;;;2.33;;
68176;SDS011;56478;50.982;7.032;2024-03-02T08:33:08;2.30;;;2.17;;
68176;SDS011;56478;50.982;7.032;2024-03-02T08:35:33;2.70;;;2.50;;
68176;SDS011;56478;50.982;7.032;2024-03-02T08:38:01;2.60;;;2.40;;
68176;SDS011;56478;50.982;7.032;2024-03-02T08:40:28;4.28;;;2.33;;
68176;SDS011;56478;50.982;7.032;2024-03-02T08:42:54;3.00;;;2.30;;
68176;SDS011;56478;50.982;7.032;2024-03-02T08:45:20;2.40;;;2.20;;
68176;SDS011;56478;50.982;7.032;2024-03-02T08:47:46;2.30;;;2.10;;
68176;SDS011;56478;50.982;7.032;2024-03-02T08:50:12;3.63;;;2.17;;
68176;SDS011;56478;50.982;7.032;2024-03-02T08:52:37;2.45;;;2.20;;
68176;SDS011;56478;50.982;7.032;2024-03-02T08:55:03;2.40;;;2.20;;
68176;SDS011;56478;50.982;7.032;2024-03-02T08:57:30;2.30;;;2.00;;
68176;SDS011;56478;50.982;7.032;2024-03-02T08:59:56;2.10;;;2.00;;
68176;SDS011;56478;50.982;7.032;2024-03-02T09:02:22;3.30;;;2.10;;
68176;SDS011;56478;50.982;7.032;2024-03-02T09:04:48;2.33;;;2.10;;
68176;SDS011;56478;50.982;7.032;2024-03-02T09:07:14;3.20;;;2.10;;
68176;SDS011;56478;50.982;7.032;2024-03-02T09:09:40;2.20;;;2.03;;
68176;SDS011;56478;50.982;7.032;2024-03-02T09:12:06;2.13;;;2.03;;
68176;SDS011;56478;50.982;7.032;2024-03-02T09:14:32;2.20;;;2.00;;
68176;SDS011;56478;50.982;7.032;2024-03-02T09:16:58;4.68;;;2.08;;
68176;SDS011;56478;50.982;7.032;2024-03-02T09:19:24;2.78;;;2.10;;
68176;SDS011;56478;50.982;7.032;2024-03-02T09:21:50;2.50;;;2.10;;
68176;SDS011;56478;50.982;7.032;2024-03-02T09:24:15;2.90;;;2.00;;
68176;SDS011;56478;50.982;7.032;2024-03-02T09:26:41;2.20;;;2.00;;
68176;SDS011;56478;50.982;7.032;2024-03-02T09:29:07;2.25;;;1.70;;
68176;SDS011;56478;50.982;7.032;2024-03-02T09:31:33;2.33;;;1.70;;
68176;SDS011;56478;50.982;7.032;2024-03-02T09:34:04;2.42;;;1.60;;
68176;SDS011;56478;50.982;7.032;2024-03-02T09:36:29;1.80;;;1.70;;
68176;SDS011;56478;50.982;7.032;2024-03-02T09:38:55;1.83;;;1.60;;
68176;SDS011;56478;50.982;7.032;2024-03-02T09:41:20;2.20;;;2.00;;
68176;SDS011;56478;50.982;7.032;2024-03-02T09:43:46;1.80;;;1.70;;
68176;SDS011;56478;50.982;7.032;2024-03-02T09:46:12;1.90;;;1.80;;
68176;SDS011;56478;50.982;7.032;2024-03-02T09:48:38;1.65;;;1.55;;
68176;SDS011;56478;50.982;7.032;2024-03-02T09:51:04;2.42;;;1.70;;
68176;SDS011;56478;50.982;7.032;2024-03-02T09:53:30;4.50;;;1.80;;
68176;SDS011;56478;50.982;7.032;2024-03-02T09:55:59;2.35;;;1.50;;
68176;SDS011;56478;50.982;7.032;2024-03-02T09:58:25;1.50;;;1.40;;
68176;SDS011;56478;50.982;7.032;2024-03-02T10:00:50;1.98;;;1.58;;
68176;SDS011;56478;50.982;7.032;2024-03-02T10:03:16;2.03;;;1.40;;
68176;SDS011;56478;50.982;7.032;2024-03-02T10:05:44;2.80;;;1.42;;
68176;SDS011;56478;50.982;7.032;2024-03-02T10:08:09;1.40;;;1.40;;
68176;SDS011;56478;50.982;7.032;2024-03-02T10:13:05;2.35;;;1.83;;
68176;SDS011;56478;50.982;7.032;2024-03-02T10:15:34;3.05;;;1.60;;
68176;SDS011;56478;50.982;7.032;2024-03-02T10:18:05;6.97;;;1.90;;
68176;SDS011;56478;50.982;7.032;2024-03-02T10:20:35;1.70;;;1.60;;
68176;SDS011;56478;50.982;7.032;2024-03-02T10:23:13;2.05;;;1.88;;
68176;SDS011;56478;50.982;7.032;2024-03-02T10:25:40;1.88;;;1.77;;
68176;SDS011;56478;50.982;7.032;2024-03-02T10:28:06;1.88;;;1.77;;
68176;SDS011;56478;50.982;7.032;2024-03-02T10:30:33;2.10;;;1.80;;
68176;SDS011;56478;50.982;7.032;2024-03-02T10:33:00;1.60;;;1.50;;
68176;SDS011;56478;50.982;7.032;2024-03-02T10:35:29;2.25;;;1.40;;
68176;SDS011;56478;50.982;7.032;2024-03-02T10:38:01;2.15;;;1.60;;
68176;SDS011;56478;50.982;7.032;2024-03-02T10:40:29;1.80;;;1.60;;
68176;SDS011;56478;50.982;7.032;2024-03-02T10:42:55;2.53;;;1.50;;
68176;SDS011;56478;50.982;7.032;2024-03-02T10:45:21;2.25;;;1.50;;
68176;SDS011;56478;50.982;7.032;2024-03-02T10:47:48;1.40;;;1.40;;
68176;SDS011;56478;50.982;7.032;2024-03-02T10:50:15;1.85;;;1.67;;
68176;SDS011;56478;50.982;7.032;2024-03-02T10:52:41;2.38;;;1.70;;
68176;SDS011;56478;50.982;7.032;2024-03-02T10:55:07;1.70;;;1.60;;
68176;SDS011;56478;50.982;7.032;2024-03-02T10:57:41;1.70;;;1.60;;
68176;SDS011;56478;50.982;7.032;2024-03-02T11:00:11;1.85;;;1.70;;
68176;SDS011;56478;50.982;7.032;2024-03-02T11:02:48;2.25;;;1.80;;
68176;SDS011;56478;50.982;7.032;2024-03-02T11:05:28;2.80;;;1.80;;
68176;SDS011;56478;50.982;7.032;2024-03-02T11:07:57;1.90;;;1.63;;
68176;SDS011;56478;50.982;7.032;2024-03-02T11:11:03;1.98;;;1.70;;
68176;SDS011;56478;50.982;7.032;2024-03-02T11:13:31;2.65;;;1.70;;
68176;SDS011;56478;50.982;7.032;2024-03-02T11:16:09;1.92;;;1.70;;
68176;SDS011;56478;50.982;7.032;2024-03-02T11:18:43;1.70;;;1.60;;
68176;SDS011;56478;50.982;7.032;2024-03-02T11:21:09;2.10;;;1.90;;
68176;SDS011;56478;50.982;7.032;2024-03-02T11:23:35;1.98;;;1.88;;
68176;SDS011;56478;50.982;7.032;2024-03-02T11:26:19;2.50;;;1.70;;
68176;SDS011;56478;50.982;7.032;2024-03-02T11:28:46;2.10;;;1.90;;
68176;SDS011;56478;50.982;7.032;2024-03-02T11:31:12;2.17;;;1.70;;
68176;SDS011;56478;50.982;7.032;2024-03-02T11:33:38;1.83;;;1.70;;
68176;SDS011;56478;50.982;7.032;2024-03-02T11:36:03;2.55;;;1.70;;
68176;SDS011;56478;50.982;7.032;2024-03-02T11:38:32;1.92;;;1.40;;
68176;SDS011;56478;50.982;7.032;2024-03-02T11:41:07;2.90;;;1.50;;
68176;SDS011;56478;50.982;7.032;2024-03-02T11:43:37;2.15;;;1.52;;
68176;SDS011;56478;50.982;7.032;2024-03-02T11:46:05;1.70;;;1.60;;
68176;SDS011;56478;50.982;7.032;2024-03-02T11:48:38;2.38;;;1.60;;
68176;SDS011;56478;50.982;7.032;2024-03-02T11:51:04;2.42;;;1.70;;
68176;SDS011;56478;50.982;7.032;2024-03-02T11:53:30;1.90;;;1.80;;
68176;SDS011;56478;50.982;7.032;2024-03-02T11:56:00;1.90;;;1.77;;
68176;SDS011;56478;50.982;7.032;2024-03-02T11:58:27;3.30;;;2.10;;
68176;SDS011;56478;50.982;7.032;2024-03-02T12:00:53;5.30;;;3.13;;
68176;SDS011;56478;50.982;7.032;2024-03-02T12:03:23;1.77;;;1.67;;
68176;SDS011;56478;50.982;7.032;2024-03-02T12:05:50;1.83;;;1.73;;
68176;SDS011;56478;50.982;7.032;2024-03-02T12:08:18;2.50;;;1.90;;
68176;SDS011;56478;50.982;7.032;2024-03-02T12:10:44;3.17;;;1.80;;
68176;SDS011;56478;50.982;7.032;2024-03-02T12:13:21;7.00;;;1.83;;
68176;SDS011;56478;50.982;7.032;2024-03-02T12:15:47;2.60;;;1.42;;
68176;SDS011;56478;50.982;7.032;2024-03-02T12:18:18;2.30;;;2.10;;
68176;SDS011;56478;50.982;7.032;2024-03-02T12:20:43;3.10;;;1.80;;
68176;SDS011;56478;50.982;7.032;2024-03-02T12:23:09;2.90;;;1.60;;
68176;SDS011;56478;50.982;7.032;2024-03-02T12:25:35;1.98;;;1.70;;
68176;SDS011;56478;50.982;7.032;2024-03-02T12:28:01;1.77;;;1.63;;
68176;SDS011;56478;50.982;7.032;2024-03-02T12:30:28;1.65;;;1.55;;
68176;SDS011;56478;50.982;7.032;2024-03-02T12:32:55;1.60;;;1.50;;
68176;SDS011;56478;50.982;7.032;2024-03-02T12:35:21;1.83;;;1.73;;
68176;SDS011;56478;50.982;7.032;2024-03-02T12:37:50;1.70;;;1.60;;
68176;SDS011;56478;50.982;7.032;2024-03-02T12:40:17;1.30;;;1.30;;
68176;SDS011;56478;50.982;7.032;2024-03-02T12:42:44;1.70;;;1.60;;
68176;SDS011;56478;50.982;7.032;2024-03-02T12:45:10;1.60;;;1.50;;
68176;SDS011;56478;50.982;7.032;2024-03-02T12:47:37;3.97;;;1.60;;
68176;SDS011;56478;50.982;7.032;2024-03-02T12:50:04;1.90;;;1.70;;
68176;SDS011;56478;50.982;7.032;2024-03-02T12:52:30;1.63;;;1.52;;
68176;SDS011;56478;50.982;7.032;2024-03-02T12:57:26;1.58;;;1.48;;
68176;SDS011;56478;50.982;7.032;2024-03-02T12:59:54;1.45;;;1.35;;
68176;SDS011;56478;50.982;7.032;2024-03-02T13:02:23;1.27;;;1.27;;
68176;SDS011;56478;50.982;7.032;2024-03-02T13:04:52;1.52;;;1.48;;
68176;SDS011;56478;50.982;7.032;2024-03-02T13:07:19;1.70;;;1.63;;
68176;SDS011;56478;50.982;7.032;2024-03-02T13:09:48;1.73;;;1.63;;
68176;SDS011;56478;50.982;7.032;2024-03-02T13:12:15;1.38;;;1.38;;
68176;SDS011;56478;50.982;7.032;2024-03-02T13:14:41;2.60;;;1.50;;
68176;SDS011;56478;50.982;7.032;2024-03-02T13:17:10;1.52;;;1.42;;
68176;SDS011;56478;50.982;7.032;2024-03-02T13:19:35;1.60;;;1.50;;
68176;SDS011;56478;50.982;7.032;2024-03-02T13:22:01;2.05;;;1.50;;
68176;SDS011;56478;50.982;7.032;2024-03-02T13:24:29;2.05;;;1.50;;
68176;SDS011;56478;50.982;7.032;2024-03-02T13:26:55;1.50;;;1.40;;
68176;SDS011;56478;50.982;7.032;2024-03-02T13:29:23;1.75;;;1.63;;
68176;SDS011;56478;50.982;7.032;2024-03-02T13:31:49;1.48;;;1.38;;
68176;SDS011;56478;50.982;7.032;2024-03-02T13:34:15;1.50;;;1.50;;
68176;SDS011;56478;50.982;7.032;2024-03-02T13:36:41;1.73;;;1.60;;
68176;SDS011;56478;50.982;7.032;2024-03-02T13:39:06;1.48;;;1.40;;
68176;SDS011;56478;50.982;7.032;2024-03-02T13:41:34;1.35;;;1.30;;
68176;SDS011;56478;50.982;7.032;2024-03-02T13:44:00;1.33;;;1.30;;
68176;SDS011;56478;50.982;7.032;2024-03-02T13:46:26;1.30;;;1.30;;
68176;SDS011;56478;50.982;7.032;2024-03-02T13:48:52;1.48;;;1.40;;
68176;SDS011;56478;50.982;7.032;2024-03-02T13:51:19;1.70;;;1.60;;
68176;SDS011;56478;50.982;7.032;2024-03-02T13:53:45;1.40;;;1.40;;
68176;SDS011;56478;50.982;7.032;2024-03-02T13:56:10;2.33;;;1.50;;
68176;SDS011;56478;50.982;7.032;2024-03-02T13:58:36;1.88;;;1.60;;
68176;SDS011;56478;50.982;7.032;2024-03-02T14:01:02;1.65;;;1.55;;
68176;SDS011;56478;50.982;7.032;2024-03-02T14:03:29;1.60;;;1.50;;
68176;SDS011;56478;50.982;7.032;2024-03-02T14:05:56;1.85;;;1.50;;
68176;SDS011;56478;50.982;7.032;2024-03-02T14:08:21;1.60;;;1.50;;
68176;SDS011;56478;50.982;7.032;2024-03-02T14:10:48;1.50;;;1.40;;
68176;SDS011;56478;50.982;7.032;2024-03-02T14:13:14;2.72;;;1.30;;
68176;SDS011;56478;50.982;7.032;2024-03-02T14:15:41;1.42;;;1.42;;
68176;SDS011;56478;50.982;7.032;2024-03-02T14:18:06;2.03;;;1.50;;
68176;SDS011;56478;50.982;7.032;2024-03-02T14:20:35;1.45;;;1.35;;
68176;SDS011;56478;50.982;7.032;2024-03-02T14:23:00;1.73;;;1.52;;
68176;SDS011;56478;50.982;7.032;2024-03-02T14:25:28;1.48;;;1.38;;
68176;SDS011;56478;50.982;7.032;2024-03-02T14:27:56;1.45;;;1.40;;
68176;SDS011;56478;50.982;7.032;2024-03-02T14:30:23;1.77;;;1.48;;
68176;SDS011;56478;50.982;7.032;2024-03-02T14:32:49;2.28;;;1.48;;
68176;SDS011;56478;50.982;7.032;2024-03-02T14:35:15;1.60;;;1.50;;
68176;SDS011;56478;50.982;7.032;2024-03-02T14:37:41;2.25;;;1.42;;
68176;SDS011;56478;50.982;7.032;2024-03-02T14:40:06;1.50;;;1.40;;
68176;SDS011;56478;50.982;7.032;2024-03-02T14:42:34;1.60;;;1.50;;
68176;SDS011;56478;50.982;7.032;2024-03-02T14:45:01;1.40;;;1.30;;
68176;SDS011;56478;50.982;7.032;2024-03-02T14:47:29;1.30;;;1.23;;
68176;SDS011;56478;50.982;7.032;2024-03-02T14:49:57;1.50;;;1.40;;
68176;SDS011;56478;50.982;7.032;2024-03-02T14:52:23;1.52;;;1.40;;
68176;SDS011;56478;50.982;7.032;2024-03-02T14:54:49;1.45;;;1.40;;
68176;SDS011;56478;50.982;7.032;2024-03-02T14:57:14;1.40;;;1.30;;
68176;SDS011;56478;50.982;7.032;2024-03-02T14:59:40;1.60;;;1.50;;
68176;SDS011;56478;50.982;7.032;2024-03-02T15:02:06;1.67;;;1.52;;
68176;SDS011;56478;50.982;7.032;2024-03-02T15:04:33;3.13;;;1.50;;
68176;SDS011;56478;50.982;7.032;2024-03-02T15:06:59;1.25;;;1.20;;